Time;durP1;ratioP1;P1;durP2;ratioP2;P2;SDS_P1;SDS_P2;PMS_P1;PMS_P2;Temp;Humidity;BMP_temperature;BMP_pressure;BME280_temperature;BME280_humidity;BME280_pressure;Samples;Min_cycle;Max_cycle;Signal;HPM_P1;HPM_P2
2021/12/18 00:01:15;;;;;;;0.20;0.20;;;;;;;5.01;100.00;103125.50;4991357;28;20054;-86
2021/12/18 00:03:43;;;;;;;0.22;0.22;;;;;;;5.05;100.00;103132.22;5005555;28;20053;-84
2021/12/18 00:06:16;;;;;;;0.30;0.30;;;;;;;5.07;100.00;103135.59;5010999;28;20050;-83
2021/12/18 00:08:50;;;;;;;0.20;0.20;;;;;;;5.00;100.00;103118.44;5000385;28;20043;-85
2021/12/18 00:11:18;;;;;;;0.20;0.20;;;;;;;4.94;100.00;103115.47;4990890;28;20046;-85
2021/12/18 00:13:53;;;;;;;0.20;0.20;;;;;;;5.06;100.00;103123.13;4989887;28;20061;-85
2021/12/18 00:16:21;;;;;;;0.15;0.15;;;;;;;4.99;100.00;103119.47;4989279;28;20057;-85
2021/12/18 00:18:51;;;;;;;0.20;0.20;;;;;;;5.06;100.00;103115.84;4990896;28;20126;-85
2021/12/18 00:21:25;;;;;;;0.30;0.30;;;;;;;4.99;100.00;103101.41;4990301;28;20062;-85
2021/12/18 00:23:58;;;;;;;0.20;0.20;;;;;;;5.11;100.00;103115.31;4995512;28;20054;-84
2021/12/18 00:26:32;;;;;;;0.20;0.20;;;;;;;5.10;100.00;103110.94;4988365;28;20055;-84
2021/12/18 00:29:06;;;;;;;0.20;0.20;;;;;;;5.02;100.00;103114.53;4991689;28;20046;-85
2021/12/18 00:31:39;;;;;;;0.20;0.20;;;;;;;5.04;100.00;103098.16;4991188;28;20053;-85
2021/12/18 00:34:07;;;;;;;0.20;0.20;;;;;;;5.06;100.00;103110.44;4989724;28;20042;-84
2021/12/18 00:36:41;;;;;;;0.20;0.20;;;;;;;5.05;100.00;103103.38;4989280;28;20452;-85
2021/12/18 00:39:14;;;;;;;0.20;0.20;;;;;;;5.03;100.00;103083.00;4992453;28;20748;-84
2021/12/18 00:42:07;;;;;;;0.22;0.22;;;;;;;5.06;100.00;103093.44;4992503;28;20055;-85
2021/12/18 00:44:42;;;;;;;0.20;0.20;;;;;;;5.10;100.00;103102.84;4991227;28;20054;-84
2021/12/18 00:47:15;;;;;;;0.20;0.20;;;;;;;5.06;100.00;103099.66;4992015;28;20065;-85
2021/12/18 00:49:43;;;;;;;0.25;0.25;;;;;;;5.04;100.00;103099.00;4994778;28;20064;-85
2021/12/18 00:52:17;;;;;;;0.20;0.20;;;;;;;5.04;100.00;103106.25;4993070;28;20055;-85
2021/12/18 00:54:45;;;;;;;0.20;0.20;;;;;;;5.06;100.00;103099.66;4994248;28;20046;-85
2021/12/18 00:57:18;;;;;;;0.20;0.20;;;;;;;5.07;100.00;103111.31;4995879;28;20056;-85
2021/12/18 00:59:58;;;;;;;0.20;0.20;;;;;;;5.08;100.00;103108.41;4994569;28;20057;-84
2021/12/18 01:02:31;;;;;;;0.20;0.20;;;;;;;5.02;100.00;103100.22;4995988;28;20042;-84
2021/12/18 01:04:59;;;;;;;0.20;0.20;;;;;;;5.07;100.00;103111.31;4997614;28;20042;-85
2021/12/18 01:07:33;;;;;;;0.10;0.10;;;;;;;5.05;100.00;103102.53;5004618;28;20042;-85
2021/12/18 01:10:22;;;;;;;0.20;0.20;;;;;;;5.05;100.00;103107.94;4993652;28;20061;-85
2021/12/18 01:12:53;;;;;;;0.20;0.20;;;;;;;5.10;100.00;103106.34;4976518;28;20054;-85
2021/12/18 01:15:31;;;;;;;0.20;0.20;;;;;;;5.09;100.00;103111.94;4979999;28;20050;-85
2021/12/18 01:23:46;;;;;;;0.20;0.20;;;;;;;4.92;100.00;103100.47;4991952;28;20127;-85
2021/12/18 01:26:19;;;;;;;0.20;0.20;;;;;;;4.94;100.00;103096.56;4994167;28;20038;-84
2021/12/18 01:28:52;;;;;;;0.20;0.20;;;;;;;5.00;100.00;103086.91;4993809;28;20059;-85
2021/12/18 01:31:27;;;;;;;0.20;0.20;;;;;;;5.06;100.00;103096.94;4994291;28;20481;-84
2021/12/18 01:33:55;;;;;;;0.20;0.20;;;;;;;5.07;100.00;103081.63;4994454;28;20061;-84
2021/12/18 01:36:29;;;;;;;0.30;0.30;;;;;;;5.05;100.00;103084.47;4995723;28;20066;-84
2021/12/18 01:39:04;;;;;;;0.30;0.30;;;;;;;5.00;100.00;103086.03;4996602;28;20403;-85
2021/12/18 01:41:41;;;;;;;0.25;0.25;;;;;;;5.06;100.00;103090.72;4991351;28;20061;-84
2021/12/18 01:51:15;;;;;;;0.20;0.20;;;;;;;4.97;100.00;103083.72;4993994;28;20050;-84
2021/12/18 01:52:44;;;;;;;0.30;0.30;;;;;;;5.03;100.00;103091.09;4994014;28;20126;-85
2021/12/18 01:55:17;;;;;;;0.20;0.20;;;;;;;5.03;100.00;103088.41;4992346;28;20050;-84
2021/12/18 01:57:50;;;;;;;0.20;0.20;;;;;;;5.12;100.00;103087.28;4995343;28;20050;-84
2021/12/18 02:00:23;;;;;;;0.30;0.30;;;;;;;5.14;100.00;103085.25;5009229;28;20410;-84
2021/12/18 02:02:57;;;;;;;0.30;0.30;;;;;;;5.00;100.00;103070.72;4986297;28;20050;-84
2021/12/18 02:05:25;;;;;;;0.20;0.20;;;;;;;5.00;100.00;103061.75;4995561;28;20399;-84
2021/12/18 02:08:00;;;;;;;0.20;0.20;;;;;;;5.07;100.00;103081.63;4994147;28;20058;-85
2021/12/18 02:10:31;;;;;;;0.20;0.20;;;;;;;4.97;100.00;103084.53;4993397;28;20046;-85
2021/12/18 02:13:10;;;;;;;0.20;0.20;;;;;;;5.00;100.00;103091.44;4990291;28;20042;-84
2021/12/18 02:21:27;;;;;;;0.20;0.20;;;;;;;4.98;100.00;103094.31;4990456;28;20050;-84
2021/12/18 02:23:55;;;;;;;0.20;0.20;;;;;;;4.98;100.00;103082.69;4987764;28;20050;-85
2021/12/18 02:26:24;;;;;;;0.20;0.20;;;;;;;5.05;100.00;103097.13;4991211;28;20061;-85
2021/12/18 02:29:00;;;;;;;0.38;0.20;;;;;;;5.03;100.00;103089.22;4991291;28;20506;-85
2021/12/18 02:31:33;;;;;;;0.20;0.20;;;;;;;5.06;100.00;103099.66;4989753;28;20050;-85
2021/12/18 02:34:13;;;;;;;0.20;0.20;;;;;;;5.01;100.00;103093.94;4988028;28;20085;-84
2021/12/18 02:36:49;;;;;;;0.20;0.20;;;;;;;4.99;100.00;103085.22;4992351;28;20061;-84
2021/12/18 02:39:35;;;;;;;0.20;0.20;;;;;;;4.96;100.00;103091.00;4988147;28;20050;-84
2021/12/18 02:42:12;;;;;;;0.13;0.13;;;;;;;5.00;100.00;103089.59;4990637;28;20057;-85
2021/12/18 02:44:46;;;;;;;0.20;0.20;;;;;;;4.98;100.00;103080.00;4990896;28;20057;-83
2021/12/18 02:47:19;;;;;;;0.20;0.20;;;;;;;5.02;100.00;103079.44;4985990;28;20034;-83
2021/12/18 02:49:53;;;;;;;0.20;0.20;;;;;;;4.90;100.00;103065.56;4993882;28;20054;-83
2021/12/18 02:52:30;;;;;;;0.20;0.20;;;;;;;5.00;100.00;103067.16;4990387;28;20061;-86
2021/12/18 02:54:59;;;;;;;0.20;0.20;;;;;;;5.01;100.00;103060.75;4986527;28;20475;-86
2021/12/18 02:57:32;;;;;;;0.20;0.20;;;;;;;5.04;100.00;103057.66;4987769;28;20050;-86
2021/12/18 03:00:07;;;;;;;0.10;0.10;;;;;;;5.01;100.00;103053.47;4989662;28;20061;-83
2021/12/18 03:02:42;;;;;;;0.20;0.20;;;;;;;4.99;100.00;103060.09;5000957;28;20069;-84
2021/12/18 03:05:22;;;;;;;0.20;0.20;;;;;;;4.97;100.00;103054.03;4990982;28;20042;-86
2021/12/18 03:08:04;;;;;;;0.20;0.20;;;;;;;4.95;100.00;103056.91;4989405;28;20062;-85
2021/12/18 03:19:39;;;;;;;0.22;0.22;;;;;;;5.01;100.00;103037.28;4989374;28;20061;-86
2021/12/18 03:24:59;;;;;;;0.20;0.20;;;;;;;5.01;100.00;103033.75;4955915;28;20050;-85
2021/12/18 03:27:33;;;;;;;0.20;0.20;;;;;;;5.06;100.00;103029.47;4989266;28;20487;-85
2021/12/18 03:30:07;;;;;;;0.10;0.10;;;;;;;5.00;100.00;103010.47;4992332;28;20066;-84
2021/12/18 03:32:41;;;;;;;0.20;0.20;;;;;;;5.07;100.00;103023.06;4994554;28;20410;-84
2021/12/18 03:35:09;;;;;;;0.20;0.20;;;;;;;5.05;100.00;103018.88;4990386;28;20052;-84
2021/12/18 03:37:43;;;;;;;0.20;0.20;;;;;;;5.08;100.00;103015.78;4990108;28;20057;-85
2021/12/18 03:40:24;;;;;;;0.20;0.20;;;;;;;5.07;100.00;103022.25;4993238;28;20053;-85
2021/12/18 03:42:53;;;;;;;0.20;0.20;;;;;;;5.05;100.00;103017.00;4987595;28;20057;-84
2021/12/18 03:45:26;;;;;;;0.20;0.20;;;;;;;5.07;100.00;103006.03;4989837;28;20042;-84
2021/12/18 03:47:59;;;;;;;0.20;0.20;;;;;;;4.95;100.00;102986.75;4988634;28;20046;-85
2021/12/18 03:50:33;;;;;;;0.20;0.20;;;;;;;5.11;100.00;103002.78;4992231;28;20537;-84
2021/12/18 03:53:01;;;;;;;0.20;0.20;;;;;;;5.10;100.00;103011.06;4988201;28;20049;-84
2021/12/18 03:55:36;;;;;;;0.20;0.20;;;;;;;5.12;100.00;103011.69;4986979;28;20057;-84
2021/12/18 03:58:04;;;;;;;0.20;0.20;;;;;;;5.11;100.00;103010.88;4981213;28;20057;-84
2021/12/18 04:00:38;;;;;;;0.20;0.20;;;;;;;5.09;100.00;103010.19;4988186;28;20061;-84
2021/12/18 04:03:11;;;;;;;0.30;0.30;;;;;;;5.14;100.00;103011.50;4985128;28;20058;-85
2021/12/18 04:05:39;;;;;;;0.20;0.20;;;;;;;5.14;100.00;103006.97;4986716;28;20057;-85
2021/12/18 04:08:12;;;;;;;0.30;0.30;;;;;;;5.18;100.00;103010.13;4987726;28;20065;-86
2021/12/18 04:10:47;;;;;;;0.30;0.30;;;;;;;5.16;100.00;103006.78;4989977;28;20050;-86
2021/12/18 04:13:20;;;;;;;0.20;0.20;;;;;;;5.15;100.00;103013.19;4988418;28;20054;-86
2021/12/18 04:15:53;;;;;;;0.20;0.20;;;;;;;5.21;100.00;103021.38;4987440;28;20050;-85
2021/12/18 04:18:26;;;;;;;0.25;0.25;;;;;;;5.18;100.00;103019.06;4990775;28;20050;-84
2021/12/18 04:20:59;;;;;;;0.20;0.20;;;;;;;5.20;100.00;103014.31;4993277;28;20495;-86
2021/12/18 04:23:33;;;;;;;0.20;0.20;;;;;;;5.15;100.00;103019.44;4996204;28;20054;-86
2021/12/18 04:26:03;;;;;;;0.20;0.20;;;;;;;5.22;100.00;103016.81;5004285;28;20057;-86
2021/12/18 04:28:36;;;;;;;0.20;0.20;;;;;;;5.23;100.00;103011.25;4995194;28;20463;-85
2021/12/18 04:31:09;;;;;;;0.20;0.20;;;;;;;5.23;100.00;103013.97;4987816;28;20046;-85
2021/12/18 04:33:42;;;;;;;0.13;0.13;;;;;;;5.24;100.00;103004.81;4998874;28;20499;-85
2021/12/18 04:36:15;;;;;;;0.30;0.30;;;;;;;5.28;100.00;103008.00;4992730;28;20529;-84
2021/12/18 04:38:48;;;;;;;0.20;0.20;;;;;;;5.26;100.00;103007.31;4998290;28;20065;-86
2021/12/18 04:41:34;;;;;;;0.20;0.20;;;;;;;5.25;100.00;103009.19;4990011;28;20038;-85
2021/12/18 04:44:08;;;;;;;0.20;0.20;;;;;;;5.26;100.00;103001.91;4989977;28;20061;-85
2021/12/18 04:46:41;;;;;;;0.22;0.22;;;;;;;5.22;100.00;102998.78;4990016;28;20054;-86
2021/12/18 04:49:14;;;;;;;0.20;0.20;;;;;;;5.29;100.00;102996.19;4995212;28;20046;-85
2021/12/18 04:51:48;;;;;;;0.20;0.20;;;;;;;5.27;100.00;103003.59;4994150;28;20495;-85
2021/12/18 04:54:22;;;;;;;0.20;0.20;;;;;;;5.27;100.00;102982.00;4993541;28;20387;-85
2021/12/18 04:56:56;;;;;;;0.22;0.22;;;;;;;5.30;100.00;102994.31;4992037;28;20049;-85
2021/12/18 04:59:30;;;;;;;0.20;0.20;;;;;;;5.24;100.00;102994.00;4995756;28;20050;-85
2021/12/18 05:02:03;;;;;;;0.20;0.20;;;;;;;5.31;100.00;102988.72;4987628;28;20073;-85
2021/12/18 05:04:36;;;;;;;0.20;0.20;;;;;;;5.28;100.00;102989.91;4996740;28;20051;-86
2021/12/18 05:07:10;;;;;;;0.20;0.20;;;;;;;5.25;100.00;102989.47;4990401;28;20046;-85
2021/12/18 05:09:44;;;;;;;0.20;0.20;;;;;;;5.20;100.00;102973.00;4992005;28;20081;-85
2021/12/18 05:12:18;;;;;;;0.20;0.20;;;;;;;5.26;100.00;102986.59;4990548;28;20046;-85
2021/12/18 05:14:51;;;;;;;0.20;0.20;;;;;;;5.23;100.00;102986.09;4994221;28;20088;-85
2021/12/18 05:17:24;;;;;;;0.20;0.20;;;;;;;5.24;100.00;102985.91;4991077;28;20084;-84
2021/12/18 05:19:57;;;;;;;0.20;0.20;;;;;;;5.30;100.00;102975.41;4992937;28;20325;-86
2021/12/18 05:22:31;;;;;;;0.20;0.20;;;;;;;5.35;100.00;102983.78;4992550;28;20057;-86
2021/12/18 05:25:05;;;;;;;0.20;0.20;;;;;;;5.31;100.00;102977.09;4993119;28;20039;-85
2021/12/18 05:27:40;;;;;;;0.20;0.20;;;;;;;5.27;100.00;102976.59;4999290;28;20054;-84
2021/12/18 05:30:13;;;;;;;0.22;0.22;;;;;;;5.25;100.00;102975.97;5000742;28;20050;-86
2021/12/18 05:32:46;;;;;;;0.20;0.20;;;;;;;5.27;100.00;102971.22;4994486;28;20802;-85
2021/12/18 05:35:20;;;;;;;0.20;0.20;;;;;;;5.33;100.00;102967.78;4994610;28;20046;-86
2021/12/18 05:37:54;;;;;;;0.28;0.28;;;;;;;5.31;100.00;102969.81;5001607;28;20054;-85
2021/12/18 05:40:28;;;;;;;0.20;0.20;;;;;;;5.29;100.00;102963.78;4996056;28;20486;-86
2021/12/18 05:43:03;;;;;;;0.20;0.20;;;;;;;5.17;100.00;102958.00;4994492;28;20100;-85
2021/12/18 05:45:37;;;;;;;0.20;0.20;;;;;;;5.24;100.00;102964.31;4995512;28;20043;-85
2021/12/18 05:48:10;;;;;;;0.20;0.20;;;;;;;5.21;100.00;102963.88;4994660;28;20038;-84
2021/12/18 05:50:45;;;;;;;0.30;0.30;;;;;;;5.22;100.00;102952.88;4993838;28;20050;-85
2021/12/18 05:53:18;;;;;;;0.20;0.20;;;;;;;5.23;100.00;102961.81;4995154;28;20037;-85
2021/12/18 05:55:52;;;;;;;0.20;0.20;;;;;;;5.22;100.00;102958.28;4997033;28;20043;-85
2021/12/18 05:58:26;;;;;;;0.20;0.20;;;;;;;5.27;100.00;102963.09;4995499;28;20046;-85
2021/12/18 06:00:54;;;;;;;0.20;0.20;;;;;;;5.30;100.00;102957.31;4989650;28;20057;-86
2021/12/18 06:03:27;;;;;;;0.30;0.30;;;;;;;5.24;100.00;102958.91;4994105;28;20062;-85
2021/12/18 06:05:56;;;;;;;0.20;0.20;;;;;;;5.25;100.00;102957.91;4989920;28;20058;-85
2021/12/18 06:08:24;;;;;;;0.20;0.20;;;;;;;5.25;100.00;102957.91;4991969;28;20057;-85
2021/12/18 06:11:04;;;;;;;0.20;0.20;;;;;;;5.24;100.00;102955.38;4990161;28;20050;-84
2021/12/18 06:13:38;;;;;;;0.30;0.30;;;;;;;5.25;100.00;102966.00;4991565;28;20053;-84
2021/12/18 06:16:12;;;;;;;0.20;0.20;;;;;;;5.23;100.00;102961.81;4989061;28;20054;-85
2021/12/18 06:18:49;;;;;;;0.20;0.20;;;;;;;5.20;100.00;102962.19;4991100;28;20415;-86
2021/12/18 06:21:18;;;;;;;0.20;0.20;;;;;;;5.18;100.00;102959.69;4985522;28;20061;-85
2021/12/18 06:23:53;;;;;;;0.20;0.20;;;;;;;5.22;100.00;102962.81;4991015;28;20397;-85
2021/12/18 06:26:24;;;;;;;0.20;0.20;;;;;;;5.21;100.00;102967.41;4993385;28;20050;-85
2021/12/18 06:28:58;;;;;;;0.20;0.20;;;;;;;5.26;100.00;102964.13;4994898;28;20053;-86
2021/12/18 06:31:32;;;;;;;0.20;0.20;;;;;;;5.23;100.00;102961.81;4987275;28;20514;-85
2021/12/18 06:34:00;;;;;;;0.20;0.20;;;;;;;5.26;100.00;102959.59;5006561;28;20058;-83
2021/12/18 06:36:33;;;;;;;0.20;0.20;;;;;;;5.23;100.00;102948.31;4986742;28;20053;-85
2021/12/18 06:39:06;;;;;;;0.20;0.20;;;;;;;5.25;100.00;102957.91;4992143;28;20061;-85
2021/12/18 06:41:40;;;;;;;0.17;0.17;;;;;;;5.27;100.00;102960.41;4990080;28;20509;-85
2021/12/18 06:44:14;;;;;;;0.20;0.20;;;;;;;5.28;100.00;102954.81;4991170;28;20053;-84
2021/12/18 06:46:42;;;;;;;0.20;0.20;;;;;;;5.29;100.00;102961.06;4992327;28;20499;-85
2021/12/18 06:49:15;;;;;;;0.20;0.20;;;;;;;5.26;100.00;102959.59;4989009;28;20487;-86
2021/12/18 06:51:49;;;;;;;0.30;0.30;;;;;;;5.16;100.00;102944.69;4990396;28;20046;-85
2021/12/18 06:54:22;;;;;;;0.20;0.20;;;;;;;5.24;100.00;102958.91;5025540;28;20046;-86
2021/12/18 06:56:55;;;;;;;0.20;0.20;;;;;;;5.17;100.00;102957.16;4989580;28;20096;-85
2021/12/18 06:59:30;;;;;;;0.20;0.20;;;;;;;5.14;100.00;102961.06;4992382;28;20053;-85
2021/12/18 07:02:03;;;;;;;0.20;0.20;;;;;;;5.17;100.00;102960.69;4990401;28;20422;-86
2021/12/18 07:04:37;;;;;;;0.22;0.22;;;;;;;5.15;100.00;102964.59;4996118;28;20054;-85
2021/12/18 07:07:10;;;;;;;0.20;0.20;;;;;;;5.22;100.00;102968.22;4994051;28;20395;-84
2021/12/18 07:09:43;;;;;;;0.20;0.20;;;;;;;5.14;100.00;102963.78;4991577;28;20510;-85
2021/12/18 07:12:17;;;;;;;0.30;0.30;;;;;;;5.20;100.00;102959.50;4991917;28;20050;-85
2021/12/18 07:14:46;;;;;;;0.20;0.20;;;;;;;5.20;100.00;102962.19;4992462;28;20050;-84
2021/12/18 07:17:19;;;;;;;0.20;0.20;;;;;;;5.16;100.00;102961.72;4993171;28;20042;-84
2021/12/18 07:19:53;;;;;;;0.20;0.20;;;;;;;5.14;100.00;102958.38;4988889;28;20057;-84
2021/12/18 07:22:26;;;;;;;0.20;0.20;;;;;;;5.11;100.00;102958.75;4990047;28;20046;-85
2021/12/18 07:24:59;;;;;;;0.22;0.20;;;;;;;5.10;100.00;102959.78;4994781;28;20046;-85
2021/12/18 07:27:32;;;;;;;0.20;0.20;;;;;;;5.09;100.00;102956.22;4993874;28;20050;-85
2021/12/18 07:30:09;;;;;;;0.20;0.20;;;;;;;5.15;100.00;102960.06;4992664;28;20046;-85
2021/12/18 07:32:43;;;;;;;0.20;0.20;;;;;;;5.06;100.00;102959.31;4990836;28;20072;-85
2021/12/18 07:35:11;;;;;;;0.20;0.20;;;;;;;5.01;100.00;102948.22;4993263;28;20057;-85
2021/12/18 07:37:45;;;;;;;0.30;0.30;;;;;;;5.08;100.00;102951.00;4992945;28;20047;-85
2021/12/18 07:40:18;;;;;;;0.20;0.20;;;;;;;5.13;100.00;102945.06;4988591;28;20050;-84
2021/12/18 07:42:52;;;;;;;0.20;0.20;;;;;;;5.13;100.00;102945.91;4991013;28;20058;-84
2021/12/18 07:45:26;;;;;;;0.20;0.20;;;;;;;5.01;100.00;102948.22;4992509;28;20050;-86
2021/12/18 07:47:59;;;;;;;0.20;0.20;;;;;;;4.95;100.00;102954.38;4994047;28;20053;-83
2021/12/18 07:50:28;;;;;;;0.30;0.30;;;;;;;4.91;100.00;102953.06;4992568;28;20045;-84
2021/12/18 07:52:56;;;;;;;0.20;0.20;;;;;;;4.92;100.00;102942.09;5021746;28;20050;-85
2021/12/18 07:55:29;;;;;;;0.20;0.20;;;;;;;4.89;100.00;102957.84;4993339;28;20065;-85
2021/12/18 07:58:02;;;;;;;0.20;0.20;;;;;;;4.91;100.00;102953.91;4990491;28;20037;-86
2021/12/18 08:00:37;;;;;;;0.20;0.20;;;;;;;4.94;100.00;102960.78;4983940;28;20046;-85
2021/12/18 08:03:05;;;;;;;0.20;0.20;;;;;;;4.92;100.00;102942.09;4996387;28;20045;-84
2021/12/18 08:05:39;;;;;;;0.20;0.20;;;;;;;5.01;100.00;102950.09;4996046;28;20050;-85
2021/12/18 08:08:07;;;;;;;0.20;0.20;;;;;;;5.01;100.00;102947.41;4989577;28;20057;-85
2021/12/18 08:10:40;;;;;;;0.20;0.20;;;;;;;4.96;100.00;102942.56;4981251;28;20414;-85
2021/12/18 08:13:08;;;;;;;0.17;0.17;;;;;;;5.00;100.00;102961.91;4991681;28;20070;-84
2021/12/18 08:15:43;;;;;;;0.20;0.20;;;;;;;5.00;100.00;102946.56;4990725;28;20059;-85
2021/12/18 08:18:16;;;;;;;0.20;0.20;;;;;;;5.05;100.00;102940.59;4990059;28;20039;-85
2021/12/18 08:20:49;;;;;;;0.30;0.30;;;;;;;5.10;100.00;102944.41;4982859;28;20053;-85
2021/12/18 08:23:17;;;;;;;0.20;0.20;;;;;;;5.08;100.00;102943.78;4990462;28;20487;-86
2021/12/18 08:25:52;;;;;;;0.15;0.15;;;;;;;5.06;100.00;102943.09;4987308;28;20050;-84
2021/12/18 08:28:25;;;;;;;0.20;0.20;;;;;;;5.11;100.00;102942.56;4994906;28;20049;-84
2021/12/18 08:30:59;;;;;;;0.20;0.20;;;;;;;5.15;100.00;102935.78;5011540;28;20068;-84
2021/12/18 08:33:32;;;;;;;0.20;0.20;;;;;;;5.15;100.00;102941.16;4994017;28;20410;-85
2021/12/18 08:36:06;;;;;;;0.20;0.20;;;;;;;5.09;100.00;102940.03;4995040;28;20047;-85
2021/12/18 08:38:40;;;;;;;0.20;0.20;;;;;;;5.19;100.00;102938.91;4982671;28;20426;-82
2021/12/18 08:41:13;;;;;;;0.30;0.30;;;;;;;5.17;100.00;102941.81;4988628;28;20046;-84
2021/12/18 08:43:46;;;;;;;0.17;0.17;;;;;;;5.19;100.00;102938.91;4989708;28;20439;-86
2021/12/18 08:46:21;;;;;;;0.20;0.20;;;;;;;5.15;100.00;102929.50;4985610;28;20046;-85
2021/12/18 08:48:49;;;;;;;0.20;0.20;;;;;;;5.16;100.00;102933.91;4987353;28;20058;-84
2021/12/18 08:51:22;;;;;;;0.20;0.20;;;;;;;5.24;100.00;102933.78;4984643;28;20499;-85
2021/12/18 08:53:56;;;;;;;0.20;0.20;;;;;;;5.31;100.00;102933.88;5020387;28;20042;-85
2021/12/18 08:56:29;;;;;;;0.20;0.20;;;;;;;5.29;100.00;102920.56;4990104;28;20054;-85
2021/12/18 08:59:03;;;;;;;0.30;0.30;;;;;;;5.38;100.00;102924.00;4988643;28;20061;-85
2021/12/18 09:01:34;;;;;;;0.28;0.28;;;;;;;5.45;100.00;102916.78;4987871;28;20407;-86
2021/12/18 09:04:03;;;;;;;0.20;0.20;;;;;;;5.38;100.00;102927.53;4999455;28;20074;-86
2021/12/18 09:06:32;;;;;;;0.15;0.15;;;;;;;5.38;100.00;102924.00;4990809;28;20050;-86
2021/12/18 09:09:06;;;;;;;0.22;0.22;;;;;;;5.39;100.00;102920.28;4994085;28;20046;-84
2021/12/18 09:11:34;;;;;;;0.30;0.30;;;;;;;5.41;100.00;102916.34;4995098;28;20054;-86
2021/12/18 09:14:07;;;;;;;0.20;0.20;;;;;;;5.43;100.00;102908.88;5005424;28;20061;-84
2021/12/18 09:16:42;;;;;;;0.20;0.20;;;;;;;5.39;100.00;102910.28;4994854;28;20062;-85
2021/12/18 09:19:11;;;;;;;0.20;0.20;;;;;;;5.44;100.00;102912.41;4991987;28;20050;-86
2021/12/18 09:21:44;;;;;;;0.25;0.25;;;;;;;5.42;100.00;102922.59;4989353;28;20053;-85
2021/12/18 09:24:17;;;;;;;0.20;0.20;;;;;;;5.53;100.00;102919.38;4989944;28;20054;-85
2021/12/18 09:26:51;;;;;;;0.20;0.20;;;;;;;5.47;100.00;102920.16;5001140;28;20049;-87
2021/12/18 09:29:26;;;;;;;0.20;0.20;;;;;;;5.42;100.00;102919.88;4992204;28;20054;-86
2021/12/18 09:32:03;;;;;;;0.22;0.22;;;;;;;5.40;100.00;102919.22;4991270;28;20054;-87
2021/12/18 09:34:36;;;;;;;0.30;0.30;;;;;;;5.43;100.00;102913.47;4992309;28;20418;-85
2021/12/18 09:37:05;;;;;;;0.22;0.22;;;;;;;5.45;100.00;102923.06;4995967;28;20046;-86
2021/12/18 09:39:38;;;;;;;0.20;0.20;;;;;;;5.39;100.00;102925.69;4994147;28;20392;-85
2021/12/18 09:42:07;;;;;;;0.20;0.20;;;;;;;5.37;100.00;102925.88;4994537;28;20490;-85
2021/12/18 09:44:40;;;;;;;0.20;0.20;;;;;;;5.34;100.00;102904.63;4991348;28;20534;-86
2021/12/18 09:47:09;;;;;;;0.20;0.20;;;;;;;5.30;100.00;102903.31;4990316;28;20058;-85
2021/12/18 09:49:40;;;;;;;0.20;0.20;;;;;;;5.39;100.00;102915.69;4990253;28;20065;-85
2021/12/18 09:52:13;;;;;;;0.30;0.30;;;;;;;5.42;100.00;102898.28;4990078;28;20053;-86
2021/12/18 09:54:47;;;;;;;0.20;0.20;;;;;;;5.41;100.00;102896.59;4994140;28;20057;-86
2021/12/18 09:57:15;;;;;;;0.20;0.20;;;;;;;5.47;100.00;102903.97;4988188;28;20395;-85
2021/12/18 09:59:48;;;;;;;0.20;0.20;;;;;;;5.49;100.00;102901.06;4990509;28;20419;-86
2021/12/18 10:02:23;;;;;;;0.30;0.30;;;;;;;5.51;100.00;102905.25;4989027;28;20535;-85
2021/12/18 10:04:51;;;;;;;0.20;0.20;;;;;;;5.48;100.00;102900.19;4993207;28;20058;-86
2021/12/18 10:07:26;;;;;;;0.30;0.30;;;;;;;5.45;100.00;102890.66;4988267;28;20046;-85
2021/12/18 10:10:00;;;;;;;0.20;0.20;;;;;;;5.54;100.00;102898.63;4987285;28;20404;-86
2021/12/18 10:12:34;;;;;;;0.20;0.20;;;;;;;5.56;100.00;102897.38;4987021;28;20055;-86
2021/12/18 10:15:06;;;;;;;0.20;0.20;;;;;;;5.55;100.00;102897.59;4993528;28;20058;-86
2021/12/18 10:17:38;;;;;;;0.30;0.30;;;;;;;5.57;100.00;102892.84;4986516;28;20053;-86
2021/12/18 10:20:19;;;;;;;0.20;0.20;;;;;;;5.45;100.00;102874.44;4987223;28;20054;-86
2021/12/18 10:22:49;;;;;;;0.20;0.20;;;;;;;5.59;100.00;102878.13;4988083;28;20419;-85
2021/12/18 10:25:25;;;;;;;0.20;0.20;;;;;;;5.55;100.00;102882.22;4989947;28;20077;-85
2021/12/18 10:28:03;;;;;;;0.20;0.20;;;;;;;5.61;100.00;102880.63;4986677;28;20053;-84
2021/12/18 10:30:44;;;;;;;0.20;0.20;;;;;;;5.72;100.00;102879.28;4979794;28;20058;-85
2021/12/18 10:33:19;;;;;;;0.30;0.30;;;;;;;5.69;100.00;102875.09;4986928;28;20058;-85
2021/12/18 10:35:55;;;;;;;0.20;0.20;;;;;;;5.70;100.00;102875.91;4991662;28;20054;-85
2021/12/18 10:38:43;;;;;;;0.15;0.15;;;;;;;5.64;100.00;102869.44;4992979;28;20053;-85
2021/12/18 10:41:22;;;;;;;0.20;0.20;;;;;;;5.65;100.00;102856.75;4989059;28;20406;-85
2021/12/18 10:43:58;;;;;;;0.20;0.20;;;;;;;5.70;100.00;102855.13;4990624;28;20058;-85
2021/12/18 10:46:28;;;;;;;0.20;0.20;;;;;;;5.74;100.00;102859.13;4987620;28;20463;-85
2021/12/18 10:49:05;;;;;;;0.20;0.20;;;;;;;5.79;100.00;102862.09;4986702;28;20057;-85
2021/12/18 10:51:40;;;;;;;0.20;0.20;;;;;;;5.75;100.00;102854.56;4989943;28;20054;-85
2021/12/18 10:54:13;;;;;;;0.20;0.20;;;;;;;5.74;100.00;102851.00;4987129;28;20517;-88
2021/12/18 10:56:48;;;;;;;0.20;0.20;;;;;;;5.78;100.00;102841.50;4989997;28;20072;-85
2021/12/18 10:59:23;;;;;;;0.20;0.20;;;;;;;5.86;100.00;102840.53;4990096;28;20046;-84
2021/12/18 11:01:54;;;;;;;0.20;0.20;;;;;;;5.85;100.00;102830.75;4990967;28;20298;-85
2021/12/18 11:04:30;;;;;;;0.22;0.22;;;;;;;5.90;100.00;102819.38;5001756;28;20057;-83
2021/12/18 11:07:00;;;;;;;0.20;0.20;;;;;;;5.88;100.00;102794.38;5012683;28;20061;-83
2021/12/18 11:09:35;;;;;;;0.30;0.30;;;;;;;5.83;100.00;102802.25;5012471;28;20054;-84
2021/12/18 11:14:54;;;;;;;0.10;0.10;;;;;;;6.01;100.00;102805.34;4985201;28;20049;-82
2021/12/18 11:17:23;;;;;;;0.22;0.22;;;;;;;5.96;100.00;102802.34;4991088;28;20046;-85
2021/12/18 11:19:57;;;;;;;0.20;0.20;;;;;;;6.02;100.00;102795.34;4992330;28;20034;-84
2021/12/18 11:22:26;;;;;;;0.20;0.20;;;;;;;6.09;100.00;102797.09;4991411;28;20419;-83
2021/12/18 11:25:02;;;;;;;0.20;0.20;;;;;;;6.00;100.00;102795.56;4991834;28;20050;-84
2021/12/18 11:27:32;;;;;;;0.20;0.20;;;;;;;5.98;100.00;102792.22;5008398;28;20047;-84
2021/12/18 11:30:08;;;;;;;0.28;0.28;;;;;;;6.06;100.00;102799.34;4978909;28;20042;-85
2021/12/18 11:32:43;;;;;;;0.30;0.30;;;;;;;6.07;100.00;102790.19;4994167;28;20395;-82
2021/12/18 11:35:20;;;;;;;0.28;0.28;;;;;;;6.15;100.00;102781.94;4979664;28;20057;-83
2021/12/18 11:37:57;;;;;;;0.30;0.30;;;;;;;6.18;100.00;102780.72;4984325;28;20065;-84
2021/12/18 11:40:35;;;;;;;0.20;0.20;;;;;;;6.15;100.00;102778.41;4987173;28;20046;-82
2021/12/18 11:43:07;;;;;;;0.20;0.20;;;;;;;6.23;100.00;102778.25;4989998;28;20046;-82
2021/12/18 11:45:40;;;;;;;0.20;0.20;;;;;;;6.20;100.00;102784.03;4992118;28;20058;-84
2021/12/18 11:48:08;;;;;;;0.30;0.30;;;;;;;6.11;100.00;102767.97;5004204;28;20054;-82
2021/12/18 11:50:40;;;;;;;0.32;0.30;;;;;;;6.20;100.00;102773.22;4990572;28;20466;-84
2021/12/18 11:53:11;;;;;;;0.30;0.30;;;;;;;6.23;100.00;102770.16;4988135;28;20061;-82
2021/12/18 11:56:00;;;;;;;0.30;0.30;;;;;;;6.20;100.00;102763.25;4989899;28;20038;-83
2021/12/18 11:58:42;;;;;;;0.30;0.30;;;;;;;6.17;100.00;102750.13;4988302;28;20410;-82
2021/12/18 12:01:15;;;;;;;;;;;;;;;6.25;100.00;102751.84;4993616;28;20042;-84
2021/12/18 12:03:46;;;;;;;0.20;0.20;;;;;;;6.33;100.00;102761.66;4992408;28;19921;-84
2021/12/18 12:06:30;;;;;;;0.28;0.28;;;;;;;6.32;100.00;102760.00;4991274;28;20061;-83
2021/12/18 12:09:28;;;;;;;0.20;0.20;;;;;;;6.30;100.00;102735.84;5011403;28;20050;-82
2021/12/18 12:11:58;;;;;;;0.30;0.30;;;;;;;6.39;100.00;102755.44;4980372;28;20057;-83
2021/12/18 12:14:33;;;;;;;0.30;0.30;;;;;;;6.42;100.00;102753.19;4993475;28;20537;-82
2021/12/18 12:17:14;;;;;;;0.30;0.30;;;;;;;6.48;100.00;102748.84;4992127;28;20434;-83
2021/12/18 12:19:56;;;;;;;0.30;0.30;;;;;;;6.44;100.00;102734.03;4992061;28;20053;-83
2021/12/18 12:22:53;;;;;;;0.30;0.30;;;;;;;6.55;100.00;102743.47;4992242;28;20424;-82
2021/12/18 12:25:52;;;;;;;1.05;0.30;;;;;;;6.54;100.00;102737.19;4991934;28;20058;-83